Latest Weather Observations for Low Head

IDT60801

Issued at 6:35 pm EST Monday 21 April 2014 (issued every 30 minutes, with the page automatically refreshed every 10 minutes)

About weather observations | Map of weather stations | Latest weather observations for TAS | Other Formats
Station Details ID: 091293 Name: LOW HEAD Lat: -41.05 Lon: 146.79 Height: 3.0 m
Data from the previous 72 hours. | See also: Recent months at Low Head
Date/Time
EST
Temp
°C
App
Temp
°C
Dew
Point
Rel
Hum
%
Delta-T
°C
Wind Press
QNH
hPa
Press
MSL
hPa
Rain
since 9 am
mm
Dir
 
Spd
km/h
Gust
km/h
Spd
kts
Gust
kts
21/06:30pm 14.7 9.4 13.1 90 0.9 N 33 39 18 21 1012.8 - 16.2
21/06:00pm 15.0 10.1 13.6 91 0.8 N 32 43 17 23 1012.3 1012.3 15.0
21/05:59pm 15.0 10.1 13.8 92 0.7 N 32 43 17 23 1012.3 - 15.0
21/05:30pm 11.2 8.9 10.4 95 0.4 SE 13 20 7 11 1012.6 - 12.2
21/05:00pm 10.7 6.6 10.1 96 0.3 S 22 32 12 17 1012.7 - 11.8
21/04:30pm 10.3 5.3 9.5 95 0.4 S 26 32 14 17 1012.9 - 11.8
21/04:00pm 10.2 5.1 9.2 93 0.5 S 26 37 14 20 1013.5 - 9.0
21/03:30pm 10.6 5.9 9.4 92 0.6 SSE 24 32 13 17 1013.6 - 6.6
21/03:00pm 10.2 5.8 9.0 92 0.6 SSE 22 33 12 18 1013.9 1013.9 4.4
21/02:30pm 10.3 6.4 8.7 90 0.8 SSE 19 24 10 13 1014.6 - 1.0
21/02:00pm 10.7 7.2 8.9 89 0.9 SSE 17 20 9 11 1015.0 - 0.2
21/01:30pm 11.2 9.0 9.2 87 1.0 ESE 11 15 6 8 1015.1 - 0.0
21/01:00pm 10.2 7.7 8.1 87 1.0 SE 11 15 6 8 1015.8 - 0.0
21/12:30pm 9.8 6.0 7.7 87 1.0 SSE 17 19 9 10 1016.5 - 0.0
21/12:00pm 9.4 5.5 7.3 87 1.0 SSE 17 20 9 11 1016.9 1016.9 0.0
21/11:30am 9.1 4.5 5.8 80 1.5 SSE 19 24 10 13 1017.4 - 0.0
21/11:00am 9.1 3.9 5.6 79 1.6 SSE 22 26 12 14 1017.9 - 0.0
21/10:30am 8.7 4.0 5.1 78 1.6 SSE 19 24 10 13 1017.8 - 0.0
21/10:00am 8.8 4.2 5.7 81 1.4 SSE 19 24 10 13 1018.6 - 0.0
21/09:30am 8.6 3.8 4.8 77 1.7 SSE 19 26 10 14 1018.4 - 0.0
21/09:00am 8.4 2.9 4.0 74 1.9 SSE 22 26 12 14 1018.6 1018.6 0.0
21/08:30am 8.5 2.8 3.1 69 2.3 SSE 22 28 12 15 1018.7 - 0.0
21/08:00am 8.3 1.9 3.1 70 2.2 SSE 26 32 14 17 1018.2 - 0.0
21/07:30am 7.9 2.4 4.0 76 1.7 SSE 22 28 12 15 1018.1 - 0.0
21/07:00am 7.9 2.5 4.7 80 1.4 SSE 22 28 12 15 1017.8 - 0.0
21/06:30am 7.7 2.3 4.5 80 1.4 SSE 22 28 12 15 1017.5 - 0.0
21/06:00am 8.0 3.2 5.8 86 1.0 SSE 20 28 11 15 1017.2 1017.2 0.0
21/05:30am 8.0 3.3 6.0 87 0.9 SSE 20 26 11 14 1017.1 - 0.0
21/05:00am 8.3 4.3 6.6 89 0.8 SSE 17 24 9 13 1017.1 - 0.0
21/04:30am 8.1 4.1 6.6 90 0.7 SSE 17 20 9 11 1016.7 - 0.0
21/04:00am 7.8 4.0 6.0 88 0.8 SSE 15 19 8 10 1016.5 - 0.0
21/03:30am 8.6 4.5 6.4 86 1.0 S 17 20 9 11 1016.4 - 0.0
21/03:00am 9.0 5.6 5.9 81 1.4 S 13 15 7 8 1016.3 1016.3 0.0
21/02:30am 10.3 7.8 4.7 68 2.5 S 7 13 4 7 1016.3 - 0.0
21/02:00am 10.9 7.7 3.1 58 3.4 WSW 9 13 5 7 1016.2 - 0.0
21/01:30am 10.6 6.7 3.2 60 3.2 SSW 13 19 7 10 1016.1 - 0.0
21/01:00am 11.8 6.1 4.8 62 3.2 WSW 24 26 13 14 1016.0 - 0.0
21/12:30am 12.0 5.8 4.5 60 3.4 WSW 26 32 14 17 1015.6 - 0.0
21/12:00am 12.4 6.6 4.5 58 3.6 WSW 24 28 13 15 1015.4 1015.4 0.0
 
Date/Time
EST
Temp
°C
App
Temp
°C
Dew
Point
Rel
Hum
%
Delta-T
°C
Wind Press
QNH
hPa
Press
MSL
hPa
Rain
since 9 am
mm
Dir
 
Spd
km/h
Gust
km/h
Spd
kts
Gust
kts
20/11:30pm 12.7 6.6 4.6 58 3.7 WSW 26 30 14 16 1015.3 - 0.0
20/11:00pm 12.8 7.4 4.5 57 3.8 WSW 22 26 12 14 1015.3 - 0.0
20/10:30pm 12.9 7.4 4.1 55 4.0 WSW 22 26 12 14 1015.2 - 0.0
20/10:00pm 13.5 7.4 4.9 56 4.0 WSW 26 32 14 17 1014.9 - 0.0
20/09:30pm 13.7 8.1 5.4 57 3.9 WSW 24 28 13 15 1014.8 - 0.0
20/09:00pm 14.0 8.5 6.0 58 3.8 WSW 24 30 13 16 1014.4 1014.4 0.0
20/08:30pm 14.5 8.6 7.6 63 3.4 WSW 28 33 15 18 1014.0 - 0.0
20/08:00pm 14.9 9.0 9.2 68 2.9 WSW 30 33 16 18 1013.6 - 0.0
20/07:30pm 15.5 9.6 10.4 71 2.7 WSW 32 37 17 20 1013.2 - 0.0
20/07:00pm 15.9 9.1 10.8 71 2.7 W 37 43 20 23 1012.7 - 0.0
20/06:30pm 15.9 9.3 11.2 73 2.5 W 37 43 20 23 1012.1 - 0.0
20/06:00pm 16.0 9.5 11.8 76 2.3 W 37 43 20 23 1011.7 1011.7 0.0
20/05:30pm 16.0 10.2 12.6 80 1.9 W 35 44 19 24 1011.4 - 0.0
20/05:00pm 16.0 8.8 11.8 76 2.3 W 41 46 22 25 1011.1 - 0.0
20/04:30pm 15.9 9.7 12.6 81 1.8 WNW 37 44 20 24 1011.2 - 0.0
20/04:00pm 16.2 8.9 11.6 74 2.5 WNW 41 48 22 26 1011.1 - 0.0
20/03:30pm 15.8 8.5 12.7 82 1.7 WNW 43 50 23 27 1011.0 - 0.0
20/03:00pm 16.3 8.3 11.1 71 2.8 WNW 44 50 24 27 1010.8 1010.8 0.0
20/02:30pm 16.0 7.5 10.7 71 2.8 WNW 46 61 25 33 1010.8 - 0.0
20/02:00pm 16.4 8.6 11.2 71 2.8 WNW 43 50 23 27 1011.0 - 0.0
20/01:30pm 16.9 10.9 10.9 67 3.2 WNW 33 41 18 22 1011.2 - 0.0
20/01:00pm 16.3 10.3 10.7 69 3.0 WNW 33 43 18 23 1011.6 - 0.0
20/12:30pm 15.9 10.0 10.4 70 2.9 W 32 37 17 20 1011.9 - 0.0
20/12:00pm 15.5 10.2 9.7 68 3.0 WNW 28 35 15 19 1012.5 1012.5 0.0
20/11:30am 15.2 9.4 9.4 68 3.0 WNW 30 35 16 19 1012.9 - 0.0
20/11:00am 14.9 8.8 9.7 71 2.7 W 32 37 17 20 1013.0 - 0.0
20/10:30am 14.6 11.0 10.0 74 2.4 W 19 24 10 13 1013.1 - 0.0
20/10:00am 14.0 10.2 9.9 76 2.1 W 20 26 11 14 1013.5 - 0.0
20/09:30am 13.3 10.8 9.8 79 1.8 W 13 17 7 9 1013.6 - 0.0
20/09:00am 11.9 9.9 8.7 81 1.6 S 9 11 5 6 1013.6 1013.6 0.0
20/08:30am 11.5 8.7 8.5 82 1.5 S 13 17 7 9 1013.8 - 0.0
20/08:00am 10.5 7.8 7.4 81 1.5 S 11 13 6 7 1013.7 - 0.0
20/07:30am 10.5 7.5 7.8 83 1.3 S 13 15 7 8 1013.5 - 0.0
20/07:00am 11.2 8.2 7.7 79 1.7 S 13 15 7 8 1013.4 - 0.0
20/06:30am 11.4 7.9 7.2 75 2.0 SSW 15 19 8 10 1013.4 - 0.0
20/06:00am 11.8 8.4 7.7 76 2.0 SSW 15 17 8 9 1013.4 1013.4 0.0
20/05:30am 12.0 9.0 7.7 75 2.1 WSW 13 17 7 9 1013.4 - 0.0
20/05:00am 11.5 8.6 6.4 71 2.4 SW 11 15 6 8 1013.4 - 0.0
20/04:30am 11.2 7.9 6.3 72 2.3 SW 13 17 7 9 1013.3 - 0.0
20/04:00am 11.6 7.5 6.3 70 2.5 WSW 17 20 9 11 1013.4 - 0.0
20/03:30am 11.8 7.3 6.3 69 2.6 WSW 19 20 10 11 1013.5 - 0.0
20/03:00am 11.7 6.9 5.4 65 2.9 WSW 20 26 11 14 1013.6 1013.6 0.0
20/02:30am 11.3 6.9 4.7 64 3.0 WSW 17 20 9 11 1013.6 - 0.0
20/02:00am 11.2 6.0 3.7 60 3.3 WSW 20 24 11 13 1014.0 - 0.0
20/01:30am 11.0 5.5 3.8 61 3.2 WSW 22 24 12 13 1014.4 - 0.0
20/01:00am 11.0 5.2 4.6 64 2.9 WSW 24 28 13 15 1014.4 - 0.0
20/12:30am 11.1 5.3 4.2 62 3.1 WSW 24 28 13 15 1014.5 - 0.0
20/12:00am 11.3 6.0 4.9 65 2.9 WSW 22 28 12 15 1014.5 1014.5 0.0
 
Date/Time
EST
Temp
°C
App
Temp
°C
Dew
Point
Rel
Hum
%
Delta-T
°C
Wind Press
QNH
hPa
Press
MSL
hPa
Rain
since 9 am
mm
Dir
 
Spd
km/h
Gust
km/h
Spd
kts
Gust
kts
19/11:30pm 10.8 5.6 3.5 60 3.2 SW 20 24 11 13 1014.5 - 0.0
19/11:00pm 11.1 6.0 3.9 61 3.2 WSW 20 24 11 13 1014.8 - 0.0
19/10:30pm 11.4 6.5 5.0 65 2.9 WSW 20 24 11 13 1015.0 - 0.0
19/10:00pm 11.6 6.7 5.3 65 2.9 WSW 20 26 11 14 1015.1 - 0.0
19/09:30pm 12.2 6.6 5.5 63 3.1 WSW 24 28 13 15 1015.2 - 0.0
19/09:00pm 12.5 6.9 5.4 62 3.3 WSW 24 28 13 15 1015.3 1015.3 0.0
19/08:30pm 12.8 6.8 5.5 61 3.4 W 26 32 14 17 1015.2 - 0.0
19/08:00pm 12.8 6.0 5.3 60 3.5 W 30 33 16 18 1015.1 - 0.0
19/07:30pm 13.1 6.8 5.6 60 3.5 WSW 28 33 15 18 1015.0 - 0.0
19/07:00pm 13.6 7.1 6.5 62 3.4 WSW 30 35 16 19 1015.0 - 0.0
19/06:30pm 13.6 7.7 6.0 60 3.6 WSW 26 30 14 16 1014.8 - 0.0
19/06:00pm 14.2 8.2 5.2 54 4.2 W 26 32 14 17 1014.8 1014.8 0.0
19/05:30pm 14.4 8.1 5.5 55 4.2 W 28 33 15 18 1014.7 - 0.0
19/05:00pm 14.5 8.1 5.4 54 4.3 W 28 35 15 19 1014.7 - 0.0
19/04:30pm 14.7 9.0 4.8 51 4.6 W 24 32 13 17 1014.8 - 0.0
19/04:00pm 15.0 9.1 6.0 55 4.3 W 26 32 14 17 1014.9 - 0.0
19/03:30pm 15.1 9.9 5.4 52 4.6 W 22 26 12 14 1015.0 - 0.0
19/03:00pm 15.9 11.0 4.3 46 5.4 WNW 19 24 10 13 1015.1 1015.1 0.0
19/02:30pm 16.1 11.3 4.6 46 5.4 WNW 19 24 10 13 1015.2 - 0.0
19/02:00pm 15.7 10.8 4.3 46 5.3 W 19 22 10 12 1015.2 - 0.0
19/01:30pm 16.2 11.4 4.5 45 5.5 NW 19 28 10 15 1015.4 - 0.0
19/01:00pm 14.6 9.1 4.2 49 4.8 W 22 30 12 16 1015.6 - 0.0
19/12:30pm 15.3 10.4 5.1 50 4.8 WNW 20 28 11 15 1016.0 - 0.0
19/12:00pm 14.4 9.2 3.6 48 4.9 W 20 24 11 13 1016.3 1016.3 0.0
19/11:30am 14.0 8.4 3.3 48 4.8 W 22 24 12 13 1016.6 - 0.0
19/11:00am 13.8 8.8 4.4 53 4.3 W 20 26 11 14 1016.6 - 0.0
19/10:30am 13.3 8.1 3.5 51 4.4 W 20 26 11 14 1016.7 - 0.0
19/10:00am 13.1 8.0 2.9 50 4.5 W 19 24 10 13 1016.6 - 0.0
19/09:30am 12.5 7.8 3.2 53 4.1 WSW 17 20 9 11 1016.6 - 0.0
19/09:00am 12.0 9.0 4.0 58 3.6 SSW 9 17 5 9 1016.6 1016.6 1.8
19/08:30am 11.3 6.1 3.6 59 3.4 WSW 20 24 11 13 1016.3 - 1.8
19/08:00am 10.8 5.8 4.8 66 2.7 SSW 20 33 11 18 1016.4 - 1.8
19/07:30am 11.3 4.6 5.7 68 2.6 WSW 30 33 16 18 1015.8 - 1.8
19/07:00am 11.2 4.9 5.8 69 2.5 WSW 28 32 15 17 1015.6 - 1.8
19/06:30am 11.3 4.5 5.2 66 2.8 WSW 30 35 16 19 1015.3 - 1.8
19/06:00am 11.1 4.7 5.2 67 2.7 WSW 28 33 15 18 1015.3 1015.3 1.8
19/05:30am 11.1 5.5 5.2 67 2.7 WSW 24 32 13 17 1015.1 - 1.8
19/05:00am 11.1 6.3 5.4 68 2.6 SW 20 28 11 15 1015.1 - 1.8
19/04:30am 10.9 5.4 4.2 63 3.0 SW 22 26 12 14 1014.9 - 1.8
19/04:00am 11.6 4.6 5.8 67 2.7 WSW 32 35 17 19 1014.8 - 1.8
19/03:30am 11.6 5.5 4.8 63 3.1 WSW 26 30 14 16 1014.8 - 1.8
19/03:00am 11.6 5.5 5.0 64 3.0 WSW 26 30 14 16 1014.7 1014.7 1.8
19/02:30am 12.0 6.0 5.3 63 3.1 WSW 26 32 14 17 1014.7 - 1.8
19/02:00am 12.0 5.2 5.0 62 3.2 WSW 30 32 16 17 1014.9 - 1.8
19/01:30am 11.8 5.7 4.8 62 3.2 WSW 26 33 14 18 1014.9 - 1.8
19/01:00am 11.4 6.3 4.3 61 3.2 WSW 20 24 11 13 1014.9 - 1.8
19/12:30am 11.5 6.5 3.6 58 3.5 SSW 19 22 10 12 1014.8 - 1.8
19/12:00am 11.8 6.6 3.4 56 3.7 WSW 20 24 11 13 1014.7 1014.7 1.8
 
Date/Time
EST
Temp
°C
App
Temp
°C
Dew
Point
Rel
Hum
%
Delta-T
°C
Wind Press
QNH
hPa
Press
MSL
hPa
Rain
since 9 am
mm
Dir
 
Spd
km/h
Gust
km/h
Spd
kts
Gust
kts
18/11:30pm 11.7 8.2 3.3 56 3.7 S 11 17 6 9 1015.0 - 1.8
18/11:00pm 12.3 6.4 4.1 57 3.7 SW 24 30 13 16 1014.6 - 1.8
18/10:30pm 12.9 4.8 5.1 59 3.6 SW 37 44 20 24 1014.1 - 1.8
18/10:00pm 13.0 5.7 4.7 57 3.8 SW 32 41 17 22 1014.3 - 1.8
18/09:30pm 13.2 6.0 6.0 61 3.4 WSW 33 41 18 22 1014.0 - 1.8
18/09:00pm 13.4 5.0 5.5 59 3.7 WSW 39 46 21 25 1013.6 1013.6 1.8
18/08:30pm 13.5 3.6 4.9 56 4.0 WSW 46 56 25 30 1013.1 - 1.8
18/08:00pm 13.7 5.8 6.1 60 3.6 WSW 37 43 20 23 1013.1 - 1.8
18/07:30pm 13.6 6.2 5.0 56 4.0 WSW 33 37 18 20 1013.0 - 1.8
18/07:00pm 13.8 4.8 4.7 54 4.2 WSW 41 46 22 25 1012.6 - 1.8

Other Formats:

Comma delimited format used in spreadsheet applications
http://www.bom.gov.au/fwo/IDT60801/IDT60801.95964.axf

JavaScript Object Notation format (JSON) in row-major order
http://www.bom.gov.au/fwo/IDT60801/IDT60801.95964.json